Pilot Boat 183 — FT7120 — position and weather

sailwx.info

Track history (hours):
 
Tides and Currents Weather Stations Pressure Air Temp Water Temp Dewpoint Dewpoint Depression Visibility Wind Speed Wind Dir Waves Ship Positions

Pilot Boat 183

Last reported at 2015-Mar-31 04:24 UTC. Time now 2015-Mar-31 12:44 UTC.
Position N 43°19' E 005°18'.

Length 16 m; draft 1 m.

Type: Pilot. MMSI: 227005760.

Date/timePositionNaut miles runAvg speedWind from/ knotsBaromVisibWave heightAir tempDewpointWater temp
2015-Mar-31 04:24N 43°19' E 005°18'2 2.2
2015-Mar-31 03:32N 43°17' E 005°19'0 0.0
2015-Mar-30 18:33N 43°17' E 005°19'2 0.7
2015-Mar-30 15:17N 43°18' E 005°22'0 0.0
2015-Mar-30 14:34N 43°18' E 005°22'0 0.0
2015-Mar-30 13:13N 43°18' E 005°22'0 0.0
2015-Mar-30 12:33N 43°18' E 005°22'0 0.0
2015-Mar-30 11:23N 43°18' E 005°22'2 1.9
2015-Mar-30 10:05N 43°17' E 005°19'0 0.7
2015-Mar-30 09:33N 43°17' E 005°19'2 2.1
2015-Mar-30 08:34N 43°18' E 005°22'0 0.0
2015-Mar-30 07:34N 43°18' E 005°22'2 2.3
2015-Mar-30 06:31N 43°17' E 005°19'2 2.6
2015-Mar-30 05:33N 43°18' E 005°22'5 3.3
2015-Mar-30 04:11N 43°19' E 005°16'3 0.4
2015-Mar-29 19:33N 43°17' E 005°20'3 3.1
2015-Mar-29 18:29N 43°21' E 005°20'3 3.7
2015-Mar-29 17:33N 43°18' E 005°22'0 0.0
2015-Mar-29 16:33N 43°18' E 005°22'0 0.0
2015-Mar-29 15:33N 43°18' E 005°22'2 2.4
2015-Mar-29 14:33N 43°17' E 005°19'0 0.0
2015-Mar-29 13:31N 43°17' E 005°19'0 0.0
2015-Mar-29 12:32N 43°17' E 005°19'0 0.0
2015-Mar-29 11:33N 43°17' E 005°19'0 0.0
2015-Mar-29 10:33N 43°17' E 005°19'2 1.2
2015-Mar-29 08:33N 43°18' E 005°22'3 1.3
2015-Mar-29 06:33N 43°17' E 005°19'3 1.8
2015-Mar-29 05:06N 43°18' E 005°22'2 3.7
2015-Mar-29 04:33N 43°18' E 005°19'1 0.0
2015-Mar-27 19:21N 43°17' E 005°19'2 0.6
2015-Mar-27 15:30N 43°18' E 005°22'2 0.2
2015-Mar-27 07:34N 43°18' E 005°20'3 2.4
2015-Mar-27 06:28N 43°20' E 005°21'0 0.2
2015-Mar-27 05:33N 43°20' E 005°21'1 1.3
2015-Mar-27 04:33N 43°21' E 005°20'4 4.2
2015-Mar-27 03:33N 43°17' E 005°19'0 0.0
2015-Mar-26 22:10N 43°17' E 005°19'4 6.4
2015-Mar-26 21:32N 43°21' E 005°19'1 0.8
2015-Mar-26 20:33N 43°21' E 005°18'4 2.8
2015-Mar-26 19:10N 43°17' E 005°19'3 0.4
2015-Mar-26 12:34N 43°18' E 005°22'0 0.0
2015-Mar-26 10:05N 43°18' E 005°22'3 3.7
2015-Mar-26 09:22N 43°20' E 005°21'3 3.0
2015-Mar-26 08:28N 43°19' E 005°18'2 0.1
2015-Mar-25 19:10N 43°17' E 005°19'  
2015-Mar-22 10:03N 43°17' E 005°19'0 0.0
2015-Mar-21 09:22N 43°17' E 005°19'  
Track history (hours):
 
Tides and Currents Weather Stations Pressure Air Temp Water Temp Dewpoint Dewpoint Depression Visibility Wind Speed Wind Dir Waves Ship Positions

Pilot Boat 183

Last reported at 2015-Mar-31 04:24 UTC. Time now 2015-Mar-31 12:44 UTC.
Position N 43°19' E 005°18'.

Length 16 m; draft 1 m.

Type: Pilot. MMSI: 227005760.

Date/timePositionNaut miles runAvg speedWind from/ knotsBaromVisibWave heightAir tempDewpointWater temp
2015-Mar-31 04:24N 43°19' E 005°18'2 2.2
2015-Mar-31 03:32N 43°17' E 005°19'0 0.0
2015-Mar-30 18:33N 43°17' E 005°19'2 0.7
2015-Mar-30 15:17N 43°18' E 005°22'0 0.0
2015-Mar-30 14:34N 43°18' E 005°22'0 0.0
2015-Mar-30 13:13N 43°18' E 005°22'0 0.0
2015-Mar-30 12:33N 43°18' E 005°22'0 0.0
2015-Mar-30 11:23N 43°18' E 005°22'2 1.9
2015-Mar-30 10:05N 43°17' E 005°19'0 0.7
2015-Mar-30 09:33N 43°17' E 005°19'2 2.1
2015-Mar-30 08:34N 43°18' E 005°22'0 0.0
2015-Mar-30 07:34N 43°18' E 005°22'2 2.3
2015-Mar-30 06:31N 43°17' E 005°19'2 2.6
2015-Mar-30 05:33N 43°18' E 005°22'5 3.3
2015-Mar-30 04:11N 43°19' E 005°16'3 0.4
2015-Mar-29 19:33N 43°17' E 005°20'3 3.1
2015-Mar-29 18:29N 43°21' E 005°20'3 3.7
2015-Mar-29 17:33N 43°18' E 005°22'0 0.0
2015-Mar-29 16:33N 43°18' E 005°22'0 0.0
2015-Mar-29 15:33N 43°18' E 005°22'2 2.4
2015-Mar-29 14:33N 43°17' E 005°19'0 0.0
2015-Mar-29 13:31N 43°17' E 005°19'0 0.0
2015-Mar-29 12:32N 43°17' E 005°19'0 0.0
2015-Mar-29 11:33N 43°17' E 005°19'0 0.0
2015-Mar-29 10:33N 43°17' E 005°19'2 1.2
2015-Mar-29 08:33N 43°18' E 005°22'3 1.3
2015-Mar-29 06:33N 43°17' E 005°19'3 1.8
2015-Mar-29 05:06N 43°18' E 005°22'2 3.7
2015-Mar-29 04:33N 43°18' E 005°19'1 0.0
2015-Mar-27 19:21N 43°17' E 005°19'2 0.6
2015-Mar-27 15:30N 43°18' E 005°22'2 0.2
2015-Mar-27 07:34N 43°18' E 005°20'3 2.4
2015-Mar-27 06:28N 43°20' E 005°21'0 0.2
2015-Mar-27 05:33N 43°20' E 005°21'1 1.3
2015-Mar-27 04:33N 43°21' E 005°20'4 4.2
2015-Mar-27 03:33N 43°17' E 005°19'0 0.0
2015-Mar-26 22:10N 43°17' E 005°19'4 6.4
2015-Mar-26 21:32N 43°21' E 005°19'1 0.8
2015-Mar-26 20:33N 43°21' E 005°18'4 2.8
2015-Mar-26 19:10N 43°17' E 005°19'3 0.4
2015-Mar-26 12:34N 43°18' E 005°22'0 0.0
2015-Mar-26 10:05N 43°18' E 005°22'3 3.7
2015-Mar-26 09:22N 43°20' E 005°21'3 3.0
2015-Mar-26 08:28N 43°19' E 005°18'2 0.1
2015-Mar-25 19:10N 43°17' E 005°19'  
2015-Mar-22 10:03N 43°17' E 005°19'0 0.0
2015-Mar-21 09:22N 43°17' E 005°19'  

Dump ship's entire track history